Baltic Betina — 9HDW8 — position and weather

sailwx.info

Track history (hours):
 
Tides and Currents Weather Stations Pressure Air Temp Water Temp Dewpoint Dewpoint Depression Visibility Wind Speed Wind Dir Waves Ship Positions

Baltic Betina

Last reported at 2014-Aug-22 23:33 UTC. Time now 2014-Aug-22 23:41 UTC.
Position N 58°54' E 005°32'.

Length 90 m; draft 4.4 m.

Type: Ship. MMSI: 215869000.

Date/timePositionNaut miles runAvg speedWind from/ knotsBaromVisibWave heightAir tempDewpointWater temp
2014-Aug-22 23:33N 58°54' E 005°32'2 2.3
2014-Aug-22 22:33N 58°55' E 005°35'0 0.0
2014-Aug-22 21:33N 58°55' E 005°35'8 8.4
2014-Aug-22 20:33N 59°03' E 005°32'1110.9
2014-Aug-22 19:33N 59°13' E 005°21'6 5.2
2014-Aug-22 18:20N 59°19' E 005°19'1 1.6
2014-Aug-22 17:28N 59°20' E 005°18'0 0.0
2014-Aug-22 16:31N 59°20' E 005°18'0 0.0
2014-Aug-22 14:31N 59°20' E 005°18'0 0.0
2014-Aug-22 13:31N 59°20' E 005°18'0 0.3
2014-Aug-22 12:33N 59°20' E 005°19'1010.4
2014-Aug-22 11:33N 59°30' E 005°13'12 0.3
2014-Aug-20 23:21N 59°19' E 005°20'911.5
2014-Aug-20 22:33N 59°10' E 005°22'1211.8
2014-Aug-20 21:33N 59°02' E 005°39'8 8.1
2014-Aug-20 20:33N 58°54' E 005°46'3 3.2
2014-Aug-20 19:33N 58°51' E 005°45'0 0.0
2014-Aug-20 18:33N 58°51' E 005°45'3 3.1
2014-Aug-20 17:33N 58°54' E 005°46'8 8.2
2014-Aug-20 16:33N 59°02' E 005°39'7 6.6
2014-Aug-20 15:33N 58°55' E 005°35'0 0.0
2014-Aug-20 14:32N 58°55' E 005°35'0 0.5
2014-Aug-20 13:33N 58°56' E 005°35'9 9.4
2014-Aug-20 12:33N 58°47' E 005°27'10 9.3
2014-Aug-20 11:29N 58°38' E 005°34'9 9.9
2014-Aug-20 10:33N 58°30' E 005°43'10 9.9
2014-Aug-20 09:34N 58°24' E 005°58'2 1.6
2014-Aug-20 08:33N 58°26' E 005°59'0 0.4
2014-Aug-20 07:33N 58°25' E 005°60'9 9.3
2014-Aug-20 06:33N 58°19' E 006°12'10 9.9
2014-Aug-20 05:33N 58°13' E 006°27'120 9.7
2014-Aug-19 17:12N 58°53' E 010°04'811.8
2014-Aug-19 16:33N 58°55' E 010°18'1211.5
2014-Aug-19 15:33N 58°59' E 010°39'1010.2
2014-Aug-19 14:33N 59°02' E 010°58'9 8.9
2014-Aug-19 13:31N 59°11' E 010°57'0 0.0
2014-Aug-19 12:31N 59°11' E 010°57'0 0.1
2014-Aug-19 11:31N 59°11' E 010°57'0 0.0
2014-Aug-19 10:33N 59°11' E 010°57'10 9.8
2014-Aug-19 09:33N 59°01' E 010°58'1111.2
2014-Aug-19 08:33N 59°01' E 010°36'1110.9
2014-Aug-19 07:33N 59°00' E 010°15'7 2.7
2014-Aug-19 05:06N 59°02' E 010°03'3 5.4
2014-Aug-19 04:33N 58°60' E 010°05'5911.7
2014-Aug-18 23:32N 58°04' E 010°39'1010.7
2014-Aug-18 22:34N 57°54' E 010°45'1111.1
2014-Aug-18 21:33N 57°42' E 010°46'1211.6
2014-Aug-18 20:34N 57°31' E 010°45'1211.9
2014-Aug-18 19:33N 57°19' E 010°44'171 5.8
2014-Aug-17 14:05N 54°30' E 011°37'5 8.5
2014-Aug-17 13:33N 54°29' E 011°44'9 8.8
2014-Aug-17 12:33N 54°27' E 011°59'8 8.1
2014-Aug-17 11:33N 54°30' E 012°12'11 9.6
2014-Aug-17 10:26N 54°39' E 012°22'9 9.9
2014-Aug-17 09:33N 54°44' E 012°35'3210.4
2014-Aug-17 06:31N 54°56' E 013°25'1010.5
2014-Aug-17 05:33N 55°00' E 013°41'2110.5
2014-Aug-17 03:33N 55°11' E 014°13'1110.8
2014-Aug-17 02:33N 55°19' E 014°26'1111.1
2014-Aug-17 01:33N 55°26' E 014°40'1111.1
2014-Aug-17 00:33N 55°32' E 014°57'1111.3
2014-Aug-16 23:33N 55°38' E 015°14'1111.1
2014-Aug-16 22:33N 55°43' E 015°31'1311.2
2014-Aug-16 21:26N 55°50' E 015°50'1011.0
2014-Aug-16 20:30N 55°55' E 016°05'1011.0
2014-Aug-16 19:33N 56°01' E 016°21'5410.8
2014-Aug-16 14:33N 56°49' E 017°06'1110.9
2014-Aug-16 13:33N 56°59' E 017°12'1111.2
2014-Aug-16 12:33N 57°09' E 017°21'1211.6
2014-Aug-16 11:33N 57°19' E 017°32'1211.7
2014-Aug-16 10:33N 57°29' E 017°43'1411.7
2014-Aug-16 09:21N 57°41' E 017°59'  
Track history (hours):
 
Tides and Currents Weather Stations Pressure Air Temp Water Temp Dewpoint Dewpoint Depression Visibility Wind Speed Wind Dir Waves Ship Positions

Baltic Betina

Last reported at 2014-Aug-22 23:33 UTC. Time now 2014-Aug-22 23:41 UTC.
Position N 58°54' E 005°32'.

Length 90 m; draft 4.4 m.

Type: Ship. MMSI: 215869000.

Date/timePositionNaut miles runAvg speedWind from/ knotsBaromVisibWave heightAir tempDewpointWater temp
2014-Aug-22 23:33N 58°54' E 005°32'2 2.3
2014-Aug-22 22:33N 58°55' E 005°35'0 0.0
2014-Aug-22 21:33N 58°55' E 005°35'8 8.4
2014-Aug-22 20:33N 59°03' E 005°32'1110.9
2014-Aug-22 19:33N 59°13' E 005°21'6 5.2
2014-Aug-22 18:20N 59°19' E 005°19'1 1.6
2014-Aug-22 17:28N 59°20' E 005°18'0 0.0
2014-Aug-22 16:31N 59°20' E 005°18'0 0.0
2014-Aug-22 14:31N 59°20' E 005°18'0 0.0
2014-Aug-22 13:31N 59°20' E 005°18'0 0.3
2014-Aug-22 12:33N 59°20' E 005°19'1010.4
2014-Aug-22 11:33N 59°30' E 005°13'12 0.3
2014-Aug-20 23:21N 59°19' E 005°20'911.5
2014-Aug-20 22:33N 59°10' E 005°22'1211.8
2014-Aug-20 21:33N 59°02' E 005°39'8 8.1
2014-Aug-20 20:33N 58°54' E 005°46'3 3.2
2014-Aug-20 19:33N 58°51' E 005°45'0 0.0
2014-Aug-20 18:33N 58°51' E 005°45'3 3.1
2014-Aug-20 17:33N 58°54' E 005°46'8 8.2
2014-Aug-20 16:33N 59°02' E 005°39'7 6.6
2014-Aug-20 15:33N 58°55' E 005°35'0 0.0
2014-Aug-20 14:32N 58°55' E 005°35'0 0.5
2014-Aug-20 13:33N 58°56' E 005°35'9 9.4
2014-Aug-20 12:33N 58°47' E 005°27'10 9.3
2014-Aug-20 11:29N 58°38' E 005°34'9 9.9
2014-Aug-20 10:33N 58°30' E 005°43'10 9.9
2014-Aug-20 09:34N 58°24' E 005°58'2 1.6
2014-Aug-20 08:33N 58°26' E 005°59'0 0.4
2014-Aug-20 07:33N 58°25' E 005°60'9 9.3
2014-Aug-20 06:33N 58°19' E 006°12'10 9.9
2014-Aug-20 05:33N 58°13' E 006°27'120 9.7
2014-Aug-19 17:12N 58°53' E 010°04'811.8
2014-Aug-19 16:33N 58°55' E 010°18'1211.5
2014-Aug-19 15:33N 58°59' E 010°39'1010.2
2014-Aug-19 14:33N 59°02' E 010°58'9 8.9
2014-Aug-19 13:31N 59°11' E 010°57'0 0.0
2014-Aug-19 12:31N 59°11' E 010°57'0 0.1
2014-Aug-19 11:31N 59°11' E 010°57'0 0.0
2014-Aug-19 10:33N 59°11' E 010°57'10 9.8
2014-Aug-19 09:33N 59°01' E 010°58'1111.2
2014-Aug-19 08:33N 59°01' E 010°36'1110.9
2014-Aug-19 07:33N 59°00' E 010°15'7 2.7
2014-Aug-19 05:06N 59°02' E 010°03'3 5.4
2014-Aug-19 04:33N 58°60' E 010°05'5911.7
2014-Aug-18 23:32N 58°04' E 010°39'1010.7
2014-Aug-18 22:34N 57°54' E 010°45'1111.1
2014-Aug-18 21:33N 57°42' E 010°46'1211.6
2014-Aug-18 20:34N 57°31' E 010°45'1211.9
2014-Aug-18 19:33N 57°19' E 010°44'171 5.8
2014-Aug-17 14:05N 54°30' E 011°37'5 8.5
2014-Aug-17 13:33N 54°29' E 011°44'9 8.8
2014-Aug-17 12:33N 54°27' E 011°59'8 8.1
2014-Aug-17 11:33N 54°30' E 012°12'11 9.6
2014-Aug-17 10:26N 54°39' E 012°22'9 9.9
2014-Aug-17 09:33N 54°44' E 012°35'3210.4
2014-Aug-17 06:31N 54°56' E 013°25'1010.5
2014-Aug-17 05:33N 55°00' E 013°41'2110.5
2014-Aug-17 03:33N 55°11' E 014°13'1110.8
2014-Aug-17 02:33N 55°19' E 014°26'1111.1
2014-Aug-17 01:33N 55°26' E 014°40'1111.1
2014-Aug-17 00:33N 55°32' E 014°57'1111.3
2014-Aug-16 23:33N 55°38' E 015°14'1111.1
2014-Aug-16 22:33N 55°43' E 015°31'1311.2
2014-Aug-16 21:26N 55°50' E 015°50'1011.0
2014-Aug-16 20:30N 55°55' E 016°05'1011.0
2014-Aug-16 19:33N 56°01' E 016°21'5410.8
2014-Aug-16 14:33N 56°49' E 017°06'1110.9
2014-Aug-16 13:33N 56°59' E 017°12'1111.2
2014-Aug-16 12:33N 57°09' E 017°21'1211.6
2014-Aug-16 11:33N 57°19' E 017°32'1211.7
2014-Aug-16 10:33N 57°29' E 017°43'1411.7
2014-Aug-16 09:21N 57°41' E 017°59'  

Dump ship's entire track history